KBOI/BOI METAR and TAF weather

Enter ICAO airport designator
Station Type Date Time Source
KBOI METAR 2021/07/29 08:53 UTC NOAA

KBOI 290853Z 13008KT 10SM FU CLR 24/07 A3006 RMK AO2 SLP142 T02390072 51004


Station Type Date Time Source
KBOI Decoded METAR 2021/07/29 08:53 UTC NOAA

BOISE AIR TERMINAL, ID, United States (KBOI) 43-34N 116-14W 875M
Jul 29, 2021 - 04:53 AM EDT / 2021.07.29 0853 UTC
Wind: from the SE (130 degrees) at 9 MPH (8 KT):0
Visibility: 10 mile(s):0
Sky conditions: clear
Weather: smoke
Temperature: 75.0 F (23.9 C)
Dew Point: 45.0 F (7.2 C)
Relative Humidity: 34%
Pressure (altimeter): 30.06 in. Hg (1017 hPa)
Pressure tendency: 0.01 inches (0.4 hPa) higher than three hours ago
ob: KBOI 290853Z 13008KT 10SM FU CLR 24/07 A3006 RMK AO2 SLP142 T02390072 51004
cycle: 9

Station Type Date Time Source
KBOI TAF 2021/07/29 06:24 UTC NOAA

TAF KBOI 290521Z 2906/3006 14008KT 6SM FU BKN200
FM291700 30010G18KT P6SM FEW200
FM300200 33006KT P6SM FEW200

Example: see airport list